sensor_id;sensor_type;location;lat;lon;timestamp;P1;durP1;ratioP1;P2;durP2;ratioP2
6979;SDS011;3530;52.832;10.680;2023-07-30T00:00:34;3.20;;;2.90;;
6979;SDS011;3530;52.832;10.680;2023-07-30T00:03:19;4.00;;;3.70;;
6979;SDS011;3530;52.832;10.680;2023-07-30T00:06:05;3.60;;;3.10;;
6979;SDS011;3530;52.832;10.680;2023-07-30T00:08:51;3.22;;;3.03;;
6979;SDS011;3530;52.832;10.680;2023-07-30T00:11:37;3.55;;;3.25;;
6979;SDS011;3530;52.832;10.680;2023-07-30T00:14:22;3.70;;;3.40;;
6979;SDS011;3530;52.832;10.680;2023-07-30T00:17:08;3.28;;;3.08;;
6979;SDS011;3530;52.832;10.680;2023-07-30T00:19:54;3.00;;;2.80;;
6979;SDS011;3530;52.832;10.680;2023-07-30T00:22:40;3.65;;;3.10;;
6979;SDS011;3530;52.832;10.680;2023-07-30T00:25:25;3.33;;;3.13;;
6979;SDS011;3530;52.832;10.680;2023-07-30T00:28:11;3.50;;;3.20;;
6979;SDS011;3530;52.832;10.680;2023-07-30T00:30:57;4.15;;;3.30;;
6979;SDS011;3530;52.832;10.680;2023-07-30T00:33:42;3.55;;;3.25;;
6979;SDS011;3530;52.832;10.680;2023-07-30T00:36:28;2.97;;;2.80;;
6979;SDS011;3530;52.832;10.680;2023-07-30T00:39:14;3.28;;;3.08;;
6979;SDS011;3530;52.832;10.680;2023-07-30T00:42:00;3.30;;;3.10;;
6979;SDS011;3530;52.832;10.680;2023-07-30T00:44:45;2.90;;;2.70;;
6979;SDS011;3530;52.832;10.680;2023-07-30T00:47:31;2.78;;;2.63;;
6979;SDS011;3530;52.832;10.680;2023-07-30T00:50:17;3.15;;;2.95;;
6979;SDS011;3530;52.832;10.680;2023-07-30T00:53:03;3.03;;;2.83;;
6979;SDS011;3530;52.832;10.680;2023-07-30T00:55:49;3.55;;;3.25;;
6979;SDS011;3530;52.832;10.680;2023-07-30T00:58:35;3.30;;;3.00;;
6979;SDS011;3530;52.832;10.680;2023-07-30T01:01:21;3.08;;;2.65;;
6979;SDS011;3530;52.832;10.680;2023-07-30T01:04:07;2.70;;;2.60;;
6979;SDS011;3530;52.832;10.680;2023-07-30T01:06:53;2.83;;;2.63;;
6979;SDS011;3530;52.832;10.680;2023-07-30T01:09:38;3.50;;;2.85;;
6979;SDS011;3530;52.832;10.680;2023-07-30T01:12:24;3.15;;;2.95;;
6979;SDS011;3530;52.832;10.680;2023-07-30T01:15:10;3.13;;;2.92;;
6979;SDS011;3530;52.832;10.680;2023-07-30T01:17:57;3.28;;;3.08;;
6979;SDS011;3530;52.832;10.680;2023-07-30T01:20:42;2.95;;;2.80;;
6979;SDS011;3530;52.832;10.680;2023-07-30T01:23:28;2.67;;;2.50;;
6979;SDS011;3530;52.832;10.680;2023-07-30T01:29:22;3.20;;;2.92;;
6979;SDS011;3530;52.832;10.680;2023-07-30T01:32:10;3.15;;;2.85;;
6979;SDS011;3530;52.832;10.680;2023-07-30T01:34:57;2.65;;;2.55;;
6979;SDS011;3530;52.832;10.680;2023-07-30T01:37:43;3.03;;;2.83;;
6979;SDS011;3530;52.832;10.680;2023-07-30T01:40:29;3.08;;;2.88;;
6979;SDS011;3530;52.832;10.680;2023-07-30T01:43:15;3.92;;;3.00;;
6979;SDS011;3530;52.832;10.680;2023-07-30T01:46:00;2.67;;;2.58;;
6979;SDS011;3530;52.832;10.680;2023-07-30T01:48:46;2.90;;;2.70;;
6979;SDS011;3530;52.832;10.680;2023-07-30T01:51:32;3.13;;;2.92;;
6979;SDS011;3530;52.832;10.680;2023-07-30T01:54:17;2.85;;;2.63;;
6979;SDS011;3530;52.832;10.680;2023-07-30T01:57:03;3.45;;;3.05;;
6979;SDS011;3530;52.832;10.680;2023-07-30T01:59:49;3.13;;;2.90;;
6979;SDS011;3530;52.832;10.680;2023-07-30T02:02:34;3.30;;;3.00;;
6979;SDS011;3530;52.832;10.680;2023-07-30T02:05:20;2.70;;;2.60;;
6979;SDS011;3530;52.832;10.680;2023-07-30T02:08:06;2.28;;;2.17;;
6979;SDS011;3530;52.832;10.680;2023-07-30T02:10:58;3.30;;;2.65;;
6979;SDS011;3530;52.832;10.680;2023-07-30T02:13:44;2.85;;;2.65;;
6979;SDS011;3530;52.832;10.680;2023-07-30T02:16:30;2.42;;;2.33;;
6979;SDS011;3530;52.832;10.680;2023-07-30T02:19:15;2.50;;;2.30;;
6979;SDS011;3530;52.832;10.680;2023-07-30T02:22:01;4.15;;;2.40;;
6979;SDS011;3530;52.832;10.680;2023-07-30T02:24:47;2.55;;;2.40;;
6979;SDS011;3530;52.832;10.680;2023-07-30T02:27:32;2.72;;;2.53;;
6979;SDS011;3530;52.832;10.680;2023-07-30T02:30:18;3.10;;;2.42;;
6979;SDS011;3530;52.832;10.680;2023-07-30T02:33:04;2.10;;;1.98;;
6979;SDS011;3530;52.832;10.680;2023-07-30T02:35:49;2.63;;;2.42;;
6979;SDS011;3530;52.832;10.680;2023-07-30T02:38:35;2.35;;;2.22;;
6979;SDS011;3530;52.832;10.680;2023-07-30T02:41:20;2.58;;;2.38;;
6979;SDS011;3530;52.832;10.680;2023-07-30T02:44:06;2.83;;;2.63;;
6979;SDS011;3530;52.832;10.680;2023-07-30T02:46:52;2.95;;;2.47;;
6979;SDS011;3530;52.832;10.680;2023-07-30T02:49:37;4.25;;;2.47;;
6979;SDS011;3530;52.832;10.680;2023-07-30T02:52:23;2.58;;;2.38;;
6979;SDS011;3530;52.832;10.680;2023-07-30T02:55:09;2.60;;;2.40;;
6979;SDS011;3530;52.832;10.680;2023-07-30T02:57:54;2.10;;;2.00;;
6979;SDS011;3530;52.832;10.680;2023-07-30T03:00:40;2.40;;;2.30;;
6979;SDS011;3530;52.832;10.680;2023-07-30T03:03:26;2.38;;;2.28;;
6979;SDS011;3530;52.832;10.680;2023-07-30T03:06:11;2.55;;;2.40;;
6979;SDS011;3530;52.832;10.680;2023-07-30T03:08:57;2.40;;;2.30;;
6979;SDS011;3530;52.832;10.680;2023-07-30T03:11:43;2.47;;;2.20;;
6979;SDS011;3530;52.832;10.680;2023-07-30T03:14:29;4.13;;;3.25;;
6979;SDS011;3530;52.832;10.680;2023-07-30T03:17:14;3.95;;;2.40;;
6979;SDS011;3530;52.832;10.680;2023-07-30T03:20:00;3.40;;;2.40;;
6979;SDS011;3530;52.832;10.680;2023-07-30T03:22:46;2.00;;;1.90;;
6979;SDS011;3530;52.832;10.680;2023-07-30T03:25:31;3.40;;;2.65;;
6979;SDS011;3530;52.832;10.680;2023-07-30T03:28:17;2.10;;;2.00;;
6979;SDS011;3530;52.832;10.680;2023-07-30T03:31:02;2.55;;;2.38;;
6979;SDS011;3530;52.832;10.680;2023-07-30T03:33:48;2.70;;;2.60;;
6979;SDS011;3530;52.832;10.680;2023-07-30T03:36:34;2.50;;;2.13;;
6979;SDS011;3530;52.832;10.680;2023-07-30T03:39:19;2.97;;;2.60;;
6979;SDS011;3530;52.832;10.680;2023-07-30T03:42:05;2.70;;;2.45;;
6979;SDS011;3530;52.832;10.680;2023-07-30T03:44:51;2.50;;;2.30;;
6979;SDS011;3530;52.832;10.680;2023-07-30T03:47:36;3.17;;;2.97;;
6979;SDS011;3530;52.832;10.680;2023-07-30T03:50:22;2.63;;;2.50;;
6979;SDS011;3530;52.832;10.680;2023-07-30T03:53:08;7.18;;;2.60;;
6979;SDS011;3530;52.832;10.680;2023-07-30T03:55:53;2.50;;;2.20;;
6979;SDS011;3530;52.832;10.680;2023-07-30T03:58:39;3.70;;;2.53;;
6979;SDS011;3530;52.832;10.680;2023-07-30T04:01:25;2.35;;;2.20;;
6979;SDS011;3530;52.832;10.680;2023-07-30T04:04:10;3.00;;;2.65;;
6979;SDS011;3530;52.832;10.680;2023-07-30T04:06:56;3.00;;;2.70;;
6979;SDS011;3530;52.832;10.680;2023-07-30T04:09:42;3.22;;;2.67;;
6979;SDS011;3530;52.832;10.680;2023-07-30T04:12:27;4.38;;;3.05;;
6979;SDS011;3530;52.832;10.680;2023-07-30T04:15:14;2.45;;;2.30;;
6979;SDS011;3530;52.832;10.680;2023-07-30T04:18:00;3.20;;;2.80;;
6979;SDS011;3530;52.832;10.680;2023-07-30T04:20:46;3.45;;;3.25;;
6979;SDS011;3530;52.832;10.680;2023-07-30T04:23:31;2.83;;;2.60;;
6979;SDS011;3530;52.832;10.680;2023-07-30T04:26:17;3.00;;;2.67;;
6979;SDS011;3530;52.832;10.680;2023-07-30T04:29:03;3.70;;;3.20;;
6979;SDS011;3530;52.832;10.680;2023-07-30T04:31:48;2.45;;;2.35;;
6979;SDS011;3530;52.832;10.680;2023-07-30T04:34:34;2.25;;;2.15;;
6979;SDS011;3530;52.832;10.680;2023-07-30T04:37:20;5.45;;;3.30;;
6979;SDS011;3530;52.832;10.680;2023-07-30T04:40:05;2.70;;;2.60;;
6979;SDS011;3530;52.832;10.680;2023-07-30T04:42:52;2.35;;;2.25;;
6979;SDS011;3530;52.832;10.680;2023-07-30T04:45:37;2.70;;;2.50;;
6979;SDS011;3530;52.832;10.680;2023-07-30T04:48:23;3.55;;;2.58;;
6979;SDS011;3530;52.832;10.680;2023-07-30T04:51:09;2.40;;;2.20;;
6979;SDS011;3530;52.832;10.680;2023-07-30T04:53:54;2.60;;;2.40;;
6979;SDS011;3530;52.832;10.680;2023-07-30T04:56:40;3.50;;;3.20;;
6979;SDS011;3530;52.832;10.680;2023-07-30T04:59:26;2.65;;;2.53;;
6979;SDS011;3530;52.832;10.680;2023-07-30T05:02:12;3.60;;;3.30;;
6979;SDS011;3530;52.832;10.680;2023-07-30T05:04:57;2.63;;;2.42;;
6979;SDS011;3530;52.832;10.680;2023-07-30T05:07:43;2.60;;;2.50;;
6979;SDS011;3530;52.832;10.680;2023-07-30T05:10:29;3.50;;;3.30;;
6979;SDS011;3530;52.832;10.680;2023-07-30T05:13:14;3.42;;;2.75;;
6979;SDS011;3530;52.832;10.680;2023-07-30T05:16:00;4.85;;;2.40;;
6979;SDS011;3530;52.832;10.680;2023-07-30T05:18:46;3.25;;;2.90;;
6979;SDS011;3530;52.832;10.680;2023-07-30T05:21:32;3.08;;;2.75;;
6979;SDS011;3530;52.832;10.680;2023-07-30T05:24:18;3.45;;;3.15;;
6979;SDS011;3530;52.832;10.680;2023-07-30T05:27:03;2.90;;;2.60;;
6979;SDS011;3530;52.832;10.680;2023-07-30T05:29:49;2.67;;;2.47;;
6979;SDS011;3530;52.832;10.680;2023-07-30T05:32:35;2.75;;;2.55;;
6979;SDS011;3530;52.832;10.680;2023-07-30T05:35:21;4.82;;;2.42;;
6979;SDS011;3530;52.832;10.680;2023-07-30T05:38:07;3.92;;;2.60;;
6979;SDS011;3530;52.832;10.680;2023-07-30T05:40:52;3.17;;;2.28;;
6979;SDS011;3530;52.832;10.680;2023-07-30T05:43:38;2.58;;;2.47;;
6979;SDS011;3530;52.832;10.680;2023-07-30T05:46:24;2.53;;;2.33;;
6979;SDS011;3530;52.832;10.680;2023-07-30T05:49:09;2.85;;;2.53;;
6979;SDS011;3530;52.832;10.680;2023-07-30T05:51:56;2.70;;;2.50;;
6979;SDS011;3530;52.832;10.680;2023-07-30T05:54:41;2.83;;;2.60;;
6979;SDS011;3530;52.832;10.680;2023-07-30T05:57:27;3.88;;;2.75;;
6979;SDS011;3530;52.832;10.680;2023-07-30T06:00:13;3.67;;;2.83;;
6979;SDS011;3530;52.832;10.680;2023-07-30T06:02:58;6.43;;;2.63;;
6979;SDS011;3530;52.832;10.680;2023-07-30T06:05:44;3.15;;;2.20;;
6979;SDS011;3530;52.832;10.680;2023-07-30T06:08:30;4.60;;;2.30;;
6979;SDS011;3530;52.832;10.680;2023-07-30T06:11:15;2.45;;;2.28;;
6979;SDS011;3530;52.832;10.680;2023-07-30T06:14:01;5.38;;;2.38;;
6979;SDS011;3530;52.832;10.680;2023-07-30T06:16:46;2.78;;;2.30;;
6979;SDS011;3530;52.832;10.680;2023-07-30T06:19:32;4.57;;;2.60;;
6979;SDS011;3530;52.832;10.680;2023-07-30T06:22:18;4.50;;;2.88;;
6979;SDS011;3530;52.832;10.680;2023-07-30T06:25:03;2.83;;;1.98;;
6979;SDS011;3530;52.832;10.680;2023-07-30T06:27:50;6.28;;;2.63;;
6979;SDS011;3530;52.832;10.680;2023-07-30T06:30:36;4.88;;;2.55;;
6979;SDS011;3530;52.832;10.680;2023-07-30T06:33:24;4.30;;;2.33;;
6979;SDS011;3530;52.832;10.680;2023-07-30T06:36:10;5.47;;;2.25;;
6979;SDS011;3530;52.832;10.680;2023-07-30T06:38:55;4.22;;;2.53;;
6979;SDS011;3530;52.832;10.680;2023-07-30T06:41:41;2.88;;;2.20;;
6979;SDS011;3530;52.832;10.680;2023-07-30T06:44:26;3.42;;;2.20;;
6979;SDS011;3530;52.832;10.680;2023-07-30T06:47:12;3.58;;;2.63;;
6979;SDS011;3530;52.832;10.680;2023-07-30T06:49:58;3.90;;;2.33;;
6979;SDS011;3530;52.832;10.680;2023-07-30T06:52:43;2.20;;;2.10;;
6979;SDS011;3530;52.832;10.680;2023-07-30T06:55:29;5.20;;;2.72;;
6979;SDS011;3530;52.832;10.680;2023-07-30T06:58:15;3.67;;;2.45;;
6979;SDS011;3530;52.832;10.680;2023-07-30T07:01:00;4.78;;;2.60;;
6979;SDS011;3530;52.832;10.680;2023-07-30T07:03:46;3.97;;;2.15;;
6979;SDS011;3530;52.832;10.680;2023-07-30T07:06:32;3.70;;;2.20;;
6979;SDS011;3530;52.832;10.680;2023-07-30T07:09:17;4.15;;;2.08;;
6979;SDS011;3530;52.832;10.680;2023-07-30T07:12:03;2.80;;;2.55;;
6979;SDS011;3530;52.832;10.680;2023-07-30T07:14:49;4.85;;;2.95;;
6979;SDS011;3530;52.832;10.680;2023-07-30T07:17:35;2.72;;;2.10;;
6979;SDS011;3530;52.832;10.680;2023-07-30T07:20:20;5.53;;;2.22;;
6979;SDS011;3530;52.832;10.680;2023-07-30T07:23:06;3.97;;;2.15;;
6979;SDS011;3530;52.832;10.680;2023-07-30T07:25:52;3.90;;;3.08;;
6979;SDS011;3530;52.832;10.680;2023-07-30T07:28:38;4.28;;;2.35;;
6979;SDS011;3530;52.832;10.680;2023-07-30T07:31:23;3.42;;;2.45;;
6979;SDS011;3530;52.832;10.680;2023-07-30T07:34:09;5.22;;;2.40;;
6979;SDS011;3530;52.832;10.680;2023-07-30T07:36:54;3.22;;;2.35;;
6979;SDS011;3530;52.832;10.680;2023-07-30T07:39:41;3.75;;;2.35;;
6979;SDS011;3530;52.832;10.680;2023-07-30T07:42:27;5.63;;;2.55;;
6979;SDS011;3530;52.832;10.680;2023-07-30T07:45:12;8.27;;;2.33;;
6979;SDS011;3530;52.832;10.680;2023-07-30T07:47:58;2.35;;;1.90;;
6979;SDS011;3530;52.832;10.680;2023-07-30T07:50:44;2.67;;;2.05;;
6979;SDS011;3530;52.832;10.680;2023-07-30T07:53:30;5.72;;;2.78;;
6979;SDS011;3530;52.832;10.680;2023-07-30T07:56:16;4.50;;;2.10;;
6979;SDS011;3530;52.832;10.680;2023-07-30T07:59:02;2.20;;;2.08;;
6979;SDS011;3530;52.832;10.680;2023-07-30T08:01:48;6.18;;;2.42;;
6979;SDS011;3530;52.832;10.680;2023-07-30T08:04:33;3.28;;;2.30;;
6979;SDS011;3530;52.832;10.680;2023-07-30T08:07:19;3.08;;;1.90;;
6979;SDS011;3530;52.832;10.680;2023-07-30T08:10:05;2.97;;;2.10;;
6979;SDS011;3530;52.832;10.680;2023-07-30T08:12:51;2.17;;;1.65;;
6979;SDS011;3530;52.832;10.680;2023-07-30T08:15:37;6.00;;;2.00;;
6979;SDS011;3530;52.832;10.680;2023-07-30T08:18:22;7.35;;;2.10;;
6979;SDS011;3530;52.832;10.680;2023-07-30T08:21:08;4.10;;;2.10;;
6979;SDS011;3530;52.832;10.680;2023-07-30T08:23:54;4.63;;;1.90;;
6979;SDS011;3530;52.832;10.680;2023-07-30T08:26:39;2.63;;;2.30;;
6979;SDS011;3530;52.832;10.680;2023-07-30T08:29:25;6.00;;;2.38;;
6979;SDS011;3530;52.832;10.680;2023-07-30T08:32:11;2.35;;;1.95;;
6979;SDS011;3530;52.832;10.680;2023-07-30T08:34:57;2.35;;;1.90;;
6979;SDS011;3530;52.832;10.680;2023-07-30T08:37:42;6.32;;;2.42;;
6979;SDS011;3530;52.832;10.680;2023-07-30T08:40:28;4.18;;;2.00;;
6979;SDS011;3530;52.832;10.680;2023-07-30T08:43:14;2.08;;;1.83;;
6979;SDS011;3530;52.832;10.680;2023-07-30T08:46:00;2.58;;;2.35;;
6979;SDS011;3530;52.832;10.680;2023-07-30T08:48:46;2.90;;;2.22;;
6979;SDS011;3530;52.832;10.680;2023-07-30T08:51:31;3.40;;;1.85;;
6979;SDS011;3530;52.832;10.680;2023-07-30T08:54:20;2.95;;;2.05;;
6979;SDS011;3530;52.832;10.680;2023-07-30T08:57:07;2.72;;;2.05;;
6979;SDS011;3530;52.832;10.680;2023-07-30T08:59:54;3.00;;;2.10;;
6979;SDS011;3530;52.832;10.680;2023-07-30T09:02:48;4.57;;;2.22;;
6979;SDS011;3530;52.832;10.680;2023-07-30T09:05:35;2.28;;;1.85;;
6979;SDS011;3530;52.832;10.680;2023-07-30T09:08:20;5.28;;;2.30;;
6979;SDS011;3530;52.832;10.680;2023-07-30T09:11:08;2.85;;;2.10;;
6979;SDS011;3530;52.832;10.680;2023-07-30T09:13:54;1.85;;;1.73;;
6979;SDS011;3530;52.832;10.680;2023-07-30T09:16:42;1.75;;;1.65;;
6979;SDS011;3530;52.832;10.680;2023-07-30T09:19:27;4.88;;;2.03;;
6979;SDS011;3530;52.832;10.680;2023-07-30T09:22:13;3.08;;;2.00;;
6979;SDS011;3530;52.832;10.680;2023-07-30T09:25:05;3.13;;;1.77;;
6979;SDS011;3530;52.832;10.680;2023-07-30T09:27:51;2.28;;;1.95;;
6979;SDS011;3530;52.832;10.680;2023-07-30T09:30:37;1.50;;;1.40;;
6979;SDS011;3530;52.832;10.680;2023-07-30T09:33:23;1.98;;;1.88;;
6979;SDS011;3530;52.832;10.680;2023-07-30T09:36:09;2.38;;;1.88;;
6979;SDS011;3530;52.832;10.680;2023-07-30T09:38:55;2.22;;;1.60;;
6979;SDS011;3530;52.832;10.680;2023-07-30T09:41:44;4.72;;;1.65;;
6979;SDS011;3530;52.832;10.680;2023-07-30T09:44:31;3.80;;;1.70;;
6979;SDS011;3530;52.832;10.680;2023-07-30T09:47:18;2.95;;;1.73;;
6979;SDS011;3530;52.832;10.680;2023-07-30T09:50:04;4.07;;;2.00;;
6979;SDS011;3530;52.832;10.680;2023-07-30T09:52:50;7.05;;;2.00;;
6979;SDS011;3530;52.832;10.680;2023-07-30T09:55:36;4.53;;;1.95;;
6979;SDS011;3530;52.832;10.680;2023-07-30T09:58:21;1.88;;;1.77;;
6979;SDS011;3530;52.832;10.680;2023-07-30T10:01:07;3.88;;;1.70;;
6979;SDS011;3530;52.832;10.680;2023-07-30T10:03:54;4.57;;;2.00;;
6979;SDS011;3530;52.832;10.680;2023-07-30T10:06:46;3.10;;;1.98;;
6979;SDS011;3530;52.832;10.680;2023-07-30T10:09:35;2.92;;;1.80;;
6979;SDS011;3530;52.832;10.680;2023-07-30T10:12:29;3.17;;;1.60;;
6979;SDS011;3530;52.832;10.680;2023-07-30T10:15:18;2.95;;;1.90;;
6979;SDS011;3530;52.832;10.680;2023-07-30T10:18:05;1.77;;;1.67;;
6979;SDS011;3530;52.832;10.680;2023-07-30T10:20:54;1.92;;;1.83;;
6979;SDS011;3530;52.832;10.680;2023-07-30T10:23:46;1.95;;;1.67;;
6979;SDS011;3530;52.832;10.680;2023-07-30T10:26:35;5.40;;;2.28;;
6979;SDS011;3530;52.832;10.680;2023-07-30T10:29:22;2.28;;;1.70;;
6979;SDS011;3530;52.832;10.680;2023-07-30T10:32:08;3.80;;;2.00;;
6979;SDS011;3530;52.832;10.680;2023-07-30T10:34:54;2.88;;;1.60;;
6979;SDS011;3530;52.832;10.680;2023-07-30T10:37:45;2.72;;;1.52;;
6979;SDS011;3530;52.832;10.680;2023-07-30T10:40:31;7.45;;;1.80;;
6979;SDS011;3530;52.832;10.680;2023-07-30T10:43:17;1.95;;;1.50;;
6979;SDS011;3530;52.832;10.680;2023-07-30T10:46:03;2.33;;;1.80;;
6979;SDS011;3530;52.832;10.680;2023-07-30T10:48:48;2.90;;;1.88;;
6979;SDS011;3530;52.832;10.680;2023-07-30T10:51:34;2.60;;;2.00;;
6979;SDS011;3530;52.832;10.680;2023-07-30T10:54:20;1.92;;;1.80;;
6979;SDS011;3530;52.832;10.680;2023-07-30T10:57:06;4.45;;;1.75;;
6979;SDS011;3530;52.832;10.680;2023-07-30T10:59:52;4.03;;;2.25;;
6979;SDS011;3530;52.832;10.680;2023-07-30T11:02:40;3.80;;;1.83;;
6979;SDS011;3530;52.832;10.680;2023-07-30T11:05:25;2.63;;;1.92;;
6979;SDS011;3530;52.832;10.680;2023-07-30T11:08:11;3.83;;;2.33;;
6979;SDS011;3530;52.832;10.680;2023-07-30T11:10:57;2.28;;;1.73;;
6979;SDS011;3530;52.832;10.680;2023-07-30T11:13:43;2.47;;;1.90;;
6979;SDS011;3530;52.832;10.680;2023-07-30T11:16:33;5.40;;;2.25;;
6979;SDS011;3530;52.832;10.680;2023-07-30T11:19:19;2.78;;;2.30;;
6979;SDS011;3530;52.832;10.680;2023-07-30T11:22:04;4.45;;;2.35;;
6979;SDS011;3530;52.832;10.680;2023-07-30T11:24:54;6.20;;;2.10;;
6979;SDS011;3530;52.832;10.680;2023-07-30T11:27:50;4.85;;;2.40;;
6979;SDS011;3530;52.832;10.680;2023-07-30T11:30:36;5.03;;;2.05;;
6979;SDS011;3530;52.832;10.680;2023-07-30T11:33:21;3.45;;;2.45;;
6979;SDS011;3530;52.832;10.680;2023-07-30T11:36:25;2.65;;;2.45;;
6979;SDS011;3530;52.832;10.680;2023-07-30T11:39:11;6.20;;;3.10;;
6979;SDS011;3530;52.832;10.680;2023-07-30T11:41:57;4.18;;;2.70;;
6979;SDS011;3530;52.832;10.680;2023-07-30T11:44:42;7.63;;;3.10;;
6979;SDS011;3530;52.832;10.680;2023-07-30T11:47:28;13.73;;;4.28;;
6979;SDS011;3530;52.832;10.680;2023-07-30T11:50:14;16.73;;;5.75;;
6979;SDS011;3530;52.832;10.680;2023-07-30T11:53:00;13.50;;;6.30;;
6979;SDS011;3530;52.832;10.680;2023-07-30T11:55:46;10.55;;;5.25;;
6979;SDS011;3530;52.832;10.680;2023-07-30T11:58:31;12.65;;;4.82;;
6979;SDS011;3530;52.832;10.680;2023-07-30T12:01:17;7.15;;;4.65;;
6979;SDS011;3530;52.832;10.680;2023-07-30T12:04:04;6.75;;;4.70;;
6979;SDS011;3530;52.832;10.680;2023-07-30T12:06:51;5.25;;;3.55;;
6979;SDS011;3530;52.832;10.680;2023-07-30T12:09:37;4.32;;;3.70;;
6979;SDS011;3530;52.832;10.680;2023-07-30T12:12:26;8.35;;;3.72;;
6979;SDS011;3530;52.832;10.680;2023-07-30T12:15:13;5.30;;;3.55;;
6979;SDS011;3530;52.832;10.680;2023-07-30T12:17:58;3.60;;;3.30;;
6979;SDS011;3530;52.832;10.680;2023-07-30T12:20:44;6.45;;;3.53;;
6979;SDS011;3530;52.832;10.680;2023-07-30T12:23:30;6.03;;;3.53;;
6979;SDS011;3530;52.832;10.680;2023-07-30T12:26:16;7.63;;;4.07;;
6979;SDS011;3530;52.832;10.680;2023-07-30T12:29:01;6.68;;;3.95;;
6979;SDS011;3530;52.832;10.680;2023-07-30T12:31:47;6.75;;;4.47;;
6979;SDS011;3530;52.832;10.680;2023-07-30T12:34:33;4.18;;;3.83;;
6979;SDS011;3530;52.832;10.680;2023-07-30T12:37:18;4.93;;;4.07;;
6979;SDS011;3530;52.832;10.680;2023-07-30T12:40:04;4.25;;;3.70;;
6979;SDS011;3530;52.832;10.680;2023-07-30T12:42:51;4.38;;;3.97;;
6979;SDS011;3530;52.832;10.680;2023-07-30T12:45:36;4.47;;;3.97;;
6979;SDS011;3530;52.832;10.680;2023-07-30T12:48:23;7.10;;;3.90;;
6979;SDS011;3530;52.832;10.680;2023-07-30T12:51:08;3.53;;;3.30;;
6979;SDS011;3530;52.832;10.680;2023-07-30T12:53:54;4.75;;;3.53;;
6979;SDS011;3530;52.832;10.680;2023-07-30T12:56:40;6.70;;;4.00;;
6979;SDS011;3530;52.832;10.680;2023-07-30T12:59:25;5.13;;;3.35;;
6979;SDS011;3530;52.832;10.680;2023-07-30T13:02:11;5.55;;;4.05;;
6979;SDS011;3530;52.832;10.680;2023-07-30T13:04:57;3.92;;;3.53;;
6979;SDS011;3530;52.832;10.680;2023-07-30T13:07:42;4.88;;;3.65;;
6979;SDS011;3530;52.832;10.680;2023-07-30T13:10:28;5.32;;;3.50;;
6979;SDS011;3530;52.832;10.680;2023-07-30T13:13:13;6.40;;;3.65;;
6979;SDS011;3530;52.832;10.680;2023-07-30T13:15:59;3.45;;;3.08;;
6979;SDS011;3530;52.832;10.680;2023-07-30T13:18:46;6.43;;;5.00;;
6979;SDS011;3530;52.832;10.680;2023-07-30T13:21:32;5.70;;;3.95;;
6979;SDS011;3530;52.832;10.680;2023-07-30T13:24:18;8.38;;;4.07;;
6979;SDS011;3530;52.832;10.680;2023-07-30T13:27:03;3.63;;;3.30;;
6979;SDS011;3530;52.832;10.680;2023-07-30T13:29:49;8.73;;;4.32;;
6979;SDS011;3530;52.832;10.680;2023-07-30T13:32:35;4.60;;;3.85;;
6979;SDS011;3530;52.832;10.680;2023-07-30T13:35:20;5.32;;;3.70;;
6979;SDS011;3530;52.832;10.680;2023-07-30T13:38:06;3.80;;;3.50;;
6979;SDS011;3530;52.832;10.680;2023-07-30T13:40:52;4.10;;;2.92;;
6979;SDS011;3530;52.832;10.680;2023-07-30T13:43:37;6.13;;;3.17;;
6979;SDS011;3530;52.832;10.680;2023-07-30T13:46:23;5.85;;;3.10;;
6979;SDS011;3530;52.832;10.680;2023-07-30T13:49:09;3.20;;;2.90;;
6979;SDS011;3530;52.832;10.680;2023-07-30T13:51:54;5.07;;;3.08;;
6979;SDS011;3530;52.832;10.680;2023-07-30T13:54:40;4.57;;;3.00;;
6979;SDS011;3530;52.832;10.680;2023-07-30T13:57:27;3.55;;;3.20;;
6979;SDS011;3530;52.832;10.680;2023-07-30T14:00:13;2.78;;;2.47;;
6979;SDS011;3530;52.832;10.680;2023-07-30T14:02:59;5.20;;;3.60;;
6979;SDS011;3530;52.832;10.680;2023-07-30T14:05:44;3.53;;;3.22;;
6979;SDS011;3530;52.832;10.680;2023-07-30T14:08:30;3.38;;;3.05;;
6979;SDS011;3530;52.832;10.680;2023-07-30T14:11:16;3.42;;;3.13;;
6979;SDS011;3530;52.832;10.680;2023-07-30T14:14:02;6.20;;;4.50;;
6979;SDS011;3530;52.832;10.680;2023-07-30T14:16:47;5.10;;;3.75;;
6979;SDS011;3530;52.832;10.680;2023-07-30T14:19:33;3.50;;;3.20;;
6979;SDS011;3530;52.832;10.680;2023-07-30T14:22:19;3.25;;;2.95;;
6979;SDS011;3530;52.832;10.680;2023-07-30T14:25:05;4.30;;;3.40;;
6979;SDS011;3530;52.832;10.680;2023-07-30T14:27:51;3.75;;;3.42;;
6979;SDS011;3530;52.832;10.680;2023-07-30T14:30:37;3.53;;;3.03;;
6979;SDS011;3530;52.832;10.680;2023-07-30T14:33:25;4.70;;;3.20;;
6979;SDS011;3530;52.832;10.680;2023-07-30T14:36:11;3.20;;;2.92;;
6979;SDS011;3530;52.832;10.680;2023-07-30T14:38:57;4.43;;;3.25;;
6979;SDS011;3530;52.832;10.680;2023-07-30T14:41:43;5.35;;;3.67;;
6979;SDS011;3530;52.832;10.680;2023-07-30T14:44:28;3.95;;;2.95;;
6979;SDS011;3530;52.832;10.680;2023-07-30T14:47:14;5.20;;;3.60;;
6979;SDS011;3530;52.832;10.680;2023-07-30T14:50:00;5.97;;;3.22;;
6979;SDS011;3530;52.832;10.680;2023-07-30T14:52:46;4.03;;;3.72;;
6979;SDS011;3530;52.832;10.680;2023-07-30T14:55:32;5.22;;;4.13;;
6979;SDS011;3530;52.832;10.680;2023-07-30T14:58:18;3.28;;;2.95;;
6979;SDS011;3530;52.832;10.680;2023-07-30T15:01:03;3.22;;;2.75;;
6979;SDS011;3530;52.832;10.680;2023-07-30T15:03:49;5.20;;;3.65;;
6979;SDS011;3530;52.832;10.680;2023-07-30T15:06:35;4.47;;;3.35;;
6979;SDS011;3530;52.832;10.680;2023-07-30T15:09:20;7.32;;;3.60;;
6979;SDS011;3530;52.832;10.680;2023-07-30T15:12:06;3.42;;;2.78;;
6979;SDS011;3530;52.832;10.680;2023-07-30T15:14:52;2.53;;;2.33;;
6979;SDS011;3530;52.832;10.680;2023-07-30T15:17:38;2.67;;;2.08;;
6979;SDS011;3530;52.832;10.680;2023-07-30T15:20:24;3.05;;;2.20;;
6979;SDS011;3530;52.832;10.680;2023-07-30T15:23:10;1.77;;;1.67;;
6979;SDS011;3530;52.832;10.680;2023-07-30T15:25:57;2.70;;;2.22;;
6979;SDS011;3530;52.832;10.680;2023-07-30T15:28:43;2.17;;;1.90;;
6979;SDS011;3530;52.832;10.680;2023-07-30T15:31:29;4.57;;;2.25;;
6979;SDS011;3530;52.832;10.680;2023-07-30T15:34:15;2.95;;;2.20;;
6979;SDS011;3530;52.832;10.680;2023-07-30T15:37:00;2.30;;;2.00;;
6979;SDS011;3530;52.832;10.680;2023-07-30T15:39:47;3.80;;;2.10;;
6979;SDS011;3530;52.832;10.680;2023-07-30T15:42:33;1.92;;;1.80;;
6979;SDS011;3530;52.832;10.680;2023-07-30T15:45:18;3.53;;;2.08;;
6979;SDS011;3530;52.832;10.680;2023-07-30T15:48:04;2.40;;;1.70;;
6979;SDS011;3530;52.832;10.680;2023-07-30T15:50:50;1.90;;;1.80;;
6979;SDS011;3530;52.832;10.680;2023-07-30T15:53:36;2.55;;;2.03;;
6979;SDS011;3530;52.832;10.680;2023-07-30T15:56:21;6.82;;;2.75;;
6979;SDS011;3530;52.832;10.680;2023-07-30T15:59:07;2.20;;;1.85;;
6979;SDS011;3530;52.832;10.680;2023-07-30T16:01:54;3.03;;;2.00;;
6979;SDS011;3530;52.832;10.680;2023-07-30T16:04:41;3.40;;;2.20;;
6979;SDS011;3530;52.832;10.680;2023-07-30T16:07:26;1.90;;;1.80;;
6979;SDS011;3530;52.832;10.680;2023-07-30T16:10:12;2.08;;;1.85;;
6979;SDS011;3530;52.832;10.680;2023-07-30T16:12:57;4.00;;;2.00;;
6979;SDS011;3530;52.832;10.680;2023-07-30T16:15:43;3.35;;;2.42;;
6979;SDS011;3530;52.832;10.680;2023-07-30T16:18:29;5.05;;;2.25;;
6979;SDS011;3530;52.832;10.680;2023-07-30T16:21:15;3.50;;;2.55;;
6979;SDS011;3530;52.832;10.680;2023-07-30T16:24:01;1.70;;;1.60;;
6979;SDS011;3530;52.832;10.680;2023-07-30T16:26:47;2.17;;;1.77;;
6979;SDS011;3530;52.832;10.680;2023-07-30T16:29:33;1.92;;;1.70;;
6979;SDS011;3530;52.832;10.680;2023-07-30T16:32:18;2.90;;;2.70;;
6979;SDS011;3530;52.832;10.680;2023-07-30T16:35:04;1.98;;;1.88;;
6979;SDS011;3530;52.832;10.680;2023-07-30T16:37:51;2.00;;;1.88;;
6979;SDS011;3530;52.832;10.680;2023-07-30T16:40:36;6.07;;;2.47;;
6979;SDS011;3530;52.832;10.680;2023-07-30T16:43:22;2.92;;;1.60;;
6979;SDS011;3530;52.832;10.680;2023-07-30T16:46:08;1.95;;;1.80;;
6979;SDS011;3530;52.832;10.680;2023-07-30T16:48:55;2.33;;;2.08;;
6979;SDS011;3530;52.832;10.680;2023-07-30T16:51:40;2.05;;;1.92;;
6979;SDS011;3530;52.832;10.680;2023-07-30T16:54:26;1.80;;;1.67;;
6979;SDS011;3530;52.832;10.680;2023-07-30T16:57:12;2.42;;;2.08;;